sensor_id;sensor_type;location;lat;lon;timestamp;pressure;altitude;pressure_sealevel;temperature;humidity
66742;BME280;53654;54.152;19.432;2023-04-26T00:00:04;100744.55;;;8.10;65.87
66742;BME280;53654;54.152;19.432;2023-04-26T00:02:57;100743.67;;;8.05;65.54
66742;BME280;53654;54.152;19.432;2023-04-26T00:05:27;100743.50;;;8.05;66.37
66742;BME280;53654;54.152;19.432;2023-04-26T00:07:56;100741.24;;;8.06;65.77
66742;BME280;53654;54.152;19.432;2023-04-26T00:10:25;100749.23;;;8.06;65.25
66742;BME280;53654;54.152;19.432;2023-04-26T00:12:53;100749.77;;;8.06;65.38
66742;BME280;53654;54.152;19.432;2023-04-26T00:15:20;100747.48;;;8.04;65.79
66742;BME280;53654;54.152;19.432;2023-04-26T00:17:49;100747.48;;;8.02;65.61
66742;BME280;53654;54.152;19.432;2023-04-26T00:20:17;100750.27;;;8.00;65.67
66742;BME280;53654;54.152;19.432;2023-04-26T00:22:45;100745.92;;;7.99;65.91
66742;BME280;53654;54.152;19.432;2023-04-26T00:25:13;100751.30;;;8.00;66.89
66742;BME280;53654;54.152;19.432;2023-04-26T00:27:41;100750.27;;;7.98;67.20
66742;BME280;53654;54.152;19.432;2023-04-26T00:30:10;100746.78;;;7.95;67.10
66742;BME280;53654;54.152;19.432;2023-04-26T00:32:39;100748.52;;;7.93;66.61
66742;BME280;53654;54.152;19.432;2023-04-26T00:35:07;100748.85;;;7.90;67.28
66742;BME280;53654;54.152;19.432;2023-04-26T00:37:35;100750.41;;;7.86;67.46
66742;BME280;53654;54.152;19.432;2023-04-26T00:40:04;100748.48;;;7.83;67.37
66742;BME280;53654;54.152;19.432;2023-04-26T00:42:33;100751.09;;;7.81;67.30
66742;BME280;53654;54.152;19.432;2023-04-26T00:45:01;100752.83;;;7.80;67.83
66742;BME280;53654;54.152;19.432;2023-04-26T00:47:29;100747.79;;;7.80;68.61
66742;BME280;53654;54.152;19.432;2023-04-26T00:49:59;100749.00;;;7.80;68.82
66742;BME280;53654;54.152;19.432;2023-04-26T00:52:29;100748.13;;;7.79;68.70
66742;BME280;53654;54.152;19.432;2023-04-26T00:54:58;100750.04;;;7.79;68.19
66742;BME280;53654;54.152;19.432;2023-04-26T00:57:27;100746.39;;;7.77;67.92
66742;BME280;53654;54.152;19.432;2023-04-26T00:59:55;100747.95;;;7.76;68.22
66742;BME280;53654;54.152;19.432;2023-04-26T01:02:23;100747.77;;;7.76;69.06
66742;BME280;53654;54.152;19.432;2023-04-26T01:04:52;100746.73;;;7.77;69.07
66742;BME280;53654;54.152;19.432;2023-04-26T01:07:20;100752.98;;;7.79;69.06
66742;BME280;53654;54.152;19.432;2023-04-26T01:09:49;100751.42;;;7.79;68.06
66742;BME280;53654;54.152;19.432;2023-04-26T01:12:18;100752.65;;;7.80;67.70
66742;BME280;53654;54.152;19.432;2023-04-26T01:14:46;100754.39;;;7.80;67.59
66742;BME280;53654;54.152;19.432;2023-04-26T01:17:15;100755.60;;;7.79;67.43
66742;BME280;53654;54.152;19.432;2023-04-26T01:19:50;100756.11;;;7.78;66.94
66742;BME280;53654;54.152;19.432;2023-04-26T01:22:18;100753.51;;;7.76;67.05
66742;BME280;53654;54.152;19.432;2023-04-26T01:24:49;100752.63;;;7.73;66.87
66742;BME280;53654;54.152;19.432;2023-04-26T01:27:18;100750.71;;;7.71;66.59
66742;BME280;53654;54.152;19.432;2023-04-26T01:29:47;100748.61;;;7.67;66.59
66742;BME280;53654;54.152;19.432;2023-04-26T01:32:15;100748.44;;;7.65;66.65
66742;BME280;53654;54.152;19.432;2023-04-26T01:34:43;100751.73;;;7.63;66.84
66742;BME280;53654;54.152;19.432;2023-04-26T01:37:11;100750.67;;;7.61;66.85
66742;BME280;53654;54.152;19.432;2023-04-26T01:39:39;100753.80;;;7.59;66.94
66742;BME280;53654;54.152;19.432;2023-04-26T01:42:07;100750.84;;;7.58;66.75
66742;BME280;53654;54.152;19.432;2023-04-26T01:44:35;100750.13;;;7.56;66.96
66742;BME280;53654;54.152;19.432;2023-04-26T01:47:04;100751.86;;;7.54;66.78
66742;BME280;53654;54.152;19.432;2023-04-26T01:49:33;100754.80;;;7.51;66.77
66742;BME280;53654;54.152;19.432;2023-04-26T01:52:01;100753.74;;;7.48;67.27
66742;BME280;53654;54.152;19.432;2023-04-26T01:54:29;100751.30;;;7.44;67.17
66742;BME280;53654;54.152;19.432;2023-04-26T01:57:00;100751.45;;;7.41;67.25
66742;BME280;53654;54.152;19.432;2023-04-26T01:59:27;100752.66;;;7.38;67.38
66742;BME280;53654;54.152;19.432;2023-04-26T02:01:58;100750.91;;;7.35;67.60
66742;BME280;53654;54.152;19.432;2023-04-26T02:04:27;100747.78;;;7.33;68.15
66742;BME280;53654;54.152;19.432;2023-04-26T02:06:55;100745.34;;;7.32;68.17
66742;BME280;53654;54.152;19.432;2023-04-26T02:09:24;100743.77;;;7.29;67.97
66742;BME280;53654;54.152;19.432;2023-04-26T02:11:52;100739.77;;;7.26;68.30
66742;BME280;53654;54.152;19.432;2023-04-26T02:14:20;100740.97;;;7.24;68.55
66742;BME280;53654;54.152;19.432;2023-04-26T02:16:48;100742.86;;;7.20;68.48
66742;BME280;53654;54.152;19.432;2023-04-26T02:19:18;100739.19;;;7.16;68.14
66742;BME280;53654;54.152;19.432;2023-04-26T02:21:51;100740.39;;;7.13;68.55
66742;BME280;53654;54.152;19.432;2023-04-26T02:24:19;100737.08;;;7.09;68.43
66742;BME280;53654;54.152;19.432;2023-04-26T02:26:48;100738.96;;;7.06;69.05
66742;BME280;53654;54.152;19.432;2023-04-26T02:29:17;100734.95;;;7.02;69.70
66742;BME280;53654;54.152;19.432;2023-04-26T02:31:48;100731.81;;;6.98;69.98
66742;BME280;53654;54.152;19.432;2023-04-26T02:34:16;100730.75;;;6.96;70.49
66742;BME280;53654;54.152;19.432;2023-04-26T02:36:44;100730.22;;;6.93;70.67
66742;BME280;53654;54.152;19.432;2023-04-26T02:39:12;100733.66;;;6.90;70.70
66742;BME280;53654;54.152;19.432;2023-04-26T02:41:40;100733.64;;;6.87;70.48
66742;BME280;53654;54.152;19.432;2023-04-26T02:44:08;100733.63;;;6.84;70.43
66742;BME280;53654;54.152;19.432;2023-04-26T02:46:36;100735.68;;;6.80;70.19
66742;BME280;53654;54.152;19.432;2023-04-26T02:49:05;100737.40;;;6.77;70.51
66742;BME280;53654;54.152;19.432;2023-04-26T02:51:33;100735.46;;;6.73;70.07
66742;BME280;53654;54.152;19.432;2023-04-26T02:54:01;100739.94;;;6.69;70.18
66742;BME280;53654;54.152;19.432;2023-04-26T02:56:33;100742.69;;;6.65;70.28
66742;BME280;53654;54.152;19.432;2023-04-26T02:59:01;100744.73;;;6.60;70.26
66742;BME280;53654;54.152;19.432;2023-04-26T03:01:29;100744.88;;;6.56;70.17
66742;BME280;53654;54.152;19.432;2023-04-26T03:03:57;100745.54;;;6.52;70.11
66742;BME280;53654;54.152;19.432;2023-04-26T03:06:26;100747.23;;;6.49;70.20
66742;BME280;53654;54.152;19.432;2023-04-26T03:08:55;100745.48;;;6.46;70.65
66742;BME280;53654;54.152;19.432;2023-04-26T03:11:23;100742.33;;;6.42;70.83
66742;BME280;53654;54.152;19.432;2023-04-26T03:13:52;100741.60;;;6.37;70.61
66742;BME280;53654;54.152;19.432;2023-04-26T03:16:22;100744.52;;;6.33;70.46
66742;BME280;53654;54.152;19.432;2023-04-26T03:18:50;100742.73;;;6.27;70.63
66742;BME280;53654;54.152;19.432;2023-04-26T03:21:19;100745.29;;;6.24;71.03
66742;BME280;53654;54.152;19.432;2023-04-26T03:23:48;100751.14;;;6.20;71.24
66742;BME280;53654;54.152;19.432;2023-04-26T03:26:16;100754.75;;;6.17;71.13
66742;BME280;53654;54.152;19.432;2023-04-26T03:28:45;100757.70;;;6.17;71.42
66742;BME280;53654;54.152;19.432;2023-04-26T03:31:13;100760.65;;;6.17;71.91
66742;BME280;53654;54.152;19.432;2023-04-26T03:33:41;100755.63;;;6.18;71.88
66742;BME280;53654;54.152;19.432;2023-04-26T03:36:09;100758.41;;;6.19;72.14
66742;BME280;53654;54.152;19.432;2023-04-26T03:38:37;100754.25;;;6.19;72.36
66742;BME280;53654;54.152;19.432;2023-04-26T03:41:06;100750.97;;;6.19;72.45
66742;BME280;53654;54.152;19.432;2023-04-26T03:43:34;100753.24;;;6.22;73.15
66742;BME280;53654;54.152;19.432;2023-04-26T03:46:02;100752.40;;;6.24;72.99
66742;BME280;53654;54.152;19.432;2023-04-26T03:48:30;100756.39;;;6.25;72.99
66742;BME280;53654;54.152;19.432;2023-04-26T03:50:58;100755.89;;;6.27;72.92
66742;BME280;53654;54.152;19.432;2023-04-26T03:53:28;100756.24;;;6.28;72.78
66742;BME280;53654;54.152;19.432;2023-04-26T03:55:56;100760.25;;;6.30;72.70
66742;BME280;53654;54.152;19.432;2023-04-26T03:58:25;100755.59;;;6.33;72.55
66742;BME280;53654;54.152;19.432;2023-04-26T04:00:56;100757.00;;;6.36;72.51
66742;BME280;53654;54.152;19.432;2023-04-26T04:03:25;100756.33;;;6.38;72.34
66742;BME280;53654;54.152;19.432;2023-04-26T04:05:53;100755.68;;;6.43;72.37
66742;BME280;53654;54.152;19.432;2023-04-26T04:08:21;100761.79;;;6.47;71.76
66742;BME280;53654;54.152;19.432;2023-04-26T04:10:51;100763.71;;;6.51;71.85
66742;BME280;53654;54.152;19.432;2023-04-26T04:13:19;100762.54;;;6.54;71.64
66742;BME280;53654;54.152;19.432;2023-04-26T04:15:47;100765.67;;;6.57;71.56
66742;BME280;53654;54.152;19.432;2023-04-26T04:18:16;100763.11;;;6.60;71.55
66742;BME280;53654;54.152;19.432;2023-04-26T04:20:44;100766.45;;;6.66;71.58
66742;BME280;53654;54.152;19.432;2023-04-26T04:23:12;100766.31;;;6.72;71.17
66742;BME280;53654;54.152;19.432;2023-04-26T04:25:41;100767.23;;;6.77;70.79
66742;BME280;53654;54.152;19.432;2023-04-26T04:28:12;100770.02;;;6.82;70.55
66742;BME280;53654;54.152;19.432;2023-04-26T04:30:40;100770.23;;;6.86;70.21
66742;BME280;53654;54.152;19.432;2023-04-26T04:33:10;100768.70;;;6.90;70.26
66742;BME280;53654;54.152;19.432;2023-04-26T04:35:40;100768.04;;;6.95;69.78
66742;BME280;53654;54.152;19.432;2023-04-26T04:38:08;100768.77;;;6.99;69.86
66742;BME280;53654;54.152;19.432;2023-04-26T04:40:36;100767.73;;;7.02;69.62
66742;BME280;53654;54.152;19.432;2023-04-26T04:43:04;100771.92;;;7.05;69.41
66742;BME280;53654;54.152;19.432;2023-04-26T04:45:33;100767.77;;;7.07;69.53
66742;BME280;53654;54.152;19.432;2023-04-26T04:48:02;100765.68;;;7.07;69.18
66742;BME280;53654;54.152;19.432;2023-04-26T04:50:32;100774.03;;;7.10;69.09
66742;BME280;53654;54.152;19.432;2023-04-26T04:53:00;100778.21;;;7.14;69.02
66742;BME280;53654;54.152;19.432;2023-04-26T04:55:29;100778.94;;;7.18;68.86
66742;BME280;53654;54.152;19.432;2023-04-26T04:57:57;100780.17;;;7.22;68.49
66742;BME280;53654;54.152;19.432;2023-04-26T05:00:26;100781.93;;;7.26;68.39
66742;BME280;53654;54.152;19.432;2023-04-26T05:03:03;100782.11;;;7.29;68.46
66742;BME280;53654;54.152;19.432;2023-04-26T05:05:32;100781.61;;;7.30;68.15
66742;BME280;53654;54.152;19.432;2023-04-26T05:08:00;100785.44;;;7.31;68.16
66742;BME280;53654;54.152;19.432;2023-04-26T05:10:29;100779.70;;;7.30;67.95
66742;BME280;53654;54.152;19.432;2023-04-26T05:12:57;100781.61;;;7.31;68.19
66742;BME280;53654;54.152;19.432;2023-04-26T05:15:25;100783.52;;;7.32;67.87
66742;BME280;53654;54.152;19.432;2023-04-26T05:17:53;100783.35;;;7.31;67.77
66742;BME280;53654;54.152;19.432;2023-04-26T05:20:24;100791.51;;;7.33;67.94
66742;BME280;53654;54.152;19.432;2023-04-26T05:22:53;100795.34;;;7.35;68.02
66742;BME280;53654;54.152;19.432;2023-04-26T05:25:21;100793.77;;;7.34;68.14
66742;BME280;53654;54.152;19.432;2023-04-26T05:27:55;100796.89;;;7.32;67.75
66742;BME280;53654;54.152;19.432;2023-04-26T05:30:48;100793.95;;;7.32;67.89
66742;BME280;53654;54.152;19.432;2023-04-26T05:33:33;100794.99;;;7.35;68.36
66742;BME280;53654;54.152;19.432;2023-04-26T05:36:25;100795.02;;;7.36;68.32
66742;BME280;53654;54.152;19.432;2023-04-26T05:38:56;100800.40;;;7.41;68.24
66742;BME280;53654;54.152;19.432;2023-04-26T05:41:24;100798.35;;;7.45;68.04
66742;BME280;53654;54.152;19.432;2023-04-26T05:43:52;100798.88;;;7.48;67.71
66742;BME280;53654;54.152;19.432;2023-04-26T05:46:21;100797.52;;;7.51;68.12
66742;BME280;53654;54.152;19.432;2023-04-26T05:48:49;100801.00;;;7.57;67.96
66742;BME280;53654;54.152;19.432;2023-04-26T05:51:17;100802.92;;;7.61;67.73
66742;BME280;53654;54.152;19.432;2023-04-26T05:53:46;100802.60;;;7.65;67.43
66742;BME280;53654;54.152;19.432;2023-04-26T05:56:14;100806.79;;;7.68;67.35
66742;BME280;53654;54.152;19.432;2023-04-26T05:58:42;100802.29;;;7.72;67.30
66742;BME280;53654;54.152;19.432;2023-04-26T06:01:10;100806.48;;;7.78;67.29
66742;BME280;53654;54.152;19.432;2023-04-26T06:03:39;100806.85;;;7.84;67.06
66742;BME280;53654;54.152;19.432;2023-04-26T06:06:08;100804.44;;;7.89;66.97
66742;BME280;53654;54.152;19.432;2023-04-26T06:08:38;100807.23;;;7.95;66.66
66742;BME280;53654;54.152;19.432;2023-04-26T06:11:06;100810.89;;;8.00;66.25
66742;BME280;53654;54.152;19.432;2023-04-26T06:13:34;100814.39;;;8.06;66.47
66742;BME280;53654;54.152;19.432;2023-04-26T06:16:02;100814.58;;;8.12;66.23
66742;BME280;53654;54.152;19.432;2023-04-26T06:18:30;100813.20;;;8.17;66.14
66742;BME280;53654;54.152;19.432;2023-04-26T06:20:58;100812.69;;;8.22;65.41
66742;BME280;53654;54.152;19.432;2023-04-26T06:23:26;100819.98;;;8.23;65.43
66742;BME280;53654;54.152;19.432;2023-04-26T06:25:55;100817.04;;;8.28;65.48
66742;BME280;53654;54.152;19.432;2023-04-26T06:28:23;100816.02;;;8.33;65.65
66742;BME280;53654;54.152;19.432;2023-04-26T06:30:51;100815.53;;;8.41;65.73
66742;BME280;53654;54.152;19.432;2023-04-26T06:33:19;100815.89;;;8.48;65.31
66742;BME280;53654;54.152;19.432;2023-04-26T06:35:48;100811.73;;;8.55;65.31
66742;BME280;53654;54.152;19.432;2023-04-26T06:38:16;100813.65;;;8.62;65.26
66742;BME280;53654;54.152;19.432;2023-04-26T06:40:44;100814.34;;;8.70;65.35
66742;BME280;53654;54.152;19.432;2023-04-26T06:43:13;100812.77;;;8.80;64.45
66742;BME280;53654;54.152;19.432;2023-04-26T06:45:58;100816.61;;;8.87;64.12
66742;BME280;53654;54.152;19.432;2023-04-26T06:48:27;100817.81;;;8.96;63.89
66742;BME280;53654;54.152;19.432;2023-04-26T06:50:55;100821.11;;;9.06;63.88
66742;BME280;53654;54.152;19.432;2023-04-26T06:53:23;100819.52;;;9.18;63.72
66742;BME280;53654;54.152;19.432;2023-04-26T06:55:51;100820.20;;;9.30;63.62
66742;BME280;53654;54.152;19.432;2023-04-26T06:58:20;100821.91;;;9.40;63.62
66742;BME280;53654;54.152;19.432;2023-04-26T07:00:48;100825.73;;;9.50;63.29
66742;BME280;53654;54.152;19.432;2023-04-26T07:03:17;100824.83;;;9.57;62.76
66742;BME280;53654;54.152;19.432;2023-04-26T07:05:45;100828.98;;;9.66;62.58
66742;BME280;53654;54.152;19.432;2023-04-26T07:08:13;100829.83;;;9.72;61.94
66742;BME280;53654;54.152;19.432;2023-04-26T07:10:41;100827.73;;;9.76;61.58
66742;BME280;53654;54.152;19.432;2023-04-26T07:13:10;100830.16;;;9.77;60.75
66742;BME280;53654;54.152;19.432;2023-04-26T07:15:38;100829.98;;;9.78;60.90
66742;BME280;53654;54.152;19.432;2023-04-26T07:18:07;100831.19;;;9.80;60.78
66742;BME280;53654;54.152;19.432;2023-04-26T07:20:35;100831.88;;;9.86;60.78
66742;BME280;53654;54.152;19.432;2023-04-26T07:23:03;100833.05;;;9.94;60.70
66742;BME280;53654;54.152;19.432;2023-04-26T07:25:31;100831.95;;;10.04;59.76
66742;BME280;53654;54.152;19.432;2023-04-26T07:27:59;100836.27;;;10.14;58.77
66742;BME280;53654;54.152;19.432;2023-04-26T07:30:27;100833.63;;;10.24;58.45
66742;BME280;53654;54.152;19.432;2023-04-26T07:32:55;100833.05;;;10.35;58.09
66742;BME280;53654;54.152;19.432;2023-04-26T07:35:23;100832.80;;;10.50;58.39
66742;BME280;53654;54.152;19.432;2023-04-26T07:37:52;100836.02;;;10.64;57.86
66742;BME280;53654;54.152;19.432;2023-04-26T07:40:20;100831.21;;;10.76;57.05
66742;BME280;53654;54.152;19.432;2023-04-26T07:42:49;100834.46;;;10.83;56.72
66742;BME280;53654;54.152;19.432;2023-04-26T07:45:17;100830.77;;;10.87;56.25
66742;BME280;53654;54.152;19.432;2023-04-26T07:47:46;100833.52;;;10.94;56.23
66742;BME280;53654;54.152;19.432;2023-04-26T07:50:14;100826.30;;;11.00;55.78
66742;BME280;53654;54.152;19.432;2023-04-26T07:52:42;100834.29;;;11.04;55.73
66742;BME280;53654;54.152;19.432;2023-04-26T07:55:11;100836.32;;;11.11;55.37
66742;BME280;53654;54.152;19.432;2023-04-26T07:57:39;100837.11;;;11.20;54.91
66742;BME280;53654;54.152;19.432;2023-04-26T08:00:09;100837.20;;;11.29;54.67
66742;BME280;53654;54.152;19.432;2023-04-26T08:02:39;100835.79;;;11.29;54.20
66742;BME280;53654;54.152;19.432;2023-04-26T08:05:12;100836.15;;;11.28;54.17
66742;BME280;53654;54.152;19.432;2023-04-26T08:07:41;100835.77;;;11.31;54.30
66742;BME280;53654;54.152;19.432;2023-04-26T08:10:10;100838.53;;;11.35;54.37
66742;BME280;53654;54.152;19.432;2023-04-26T08:12:38;100839.55;;;11.38;54.28
66742;BME280;53654;54.152;19.432;2023-04-26T08:15:07;100843.33;;;11.44;54.09
66742;BME280;53654;54.152;19.432;2023-04-26T08:17:35;100848.65;;;11.52;54.07
66742;BME280;53654;54.152;19.432;2023-04-26T08:20:04;100853.45;;;11.60;52.88
66742;BME280;53654;54.152;19.432;2023-04-26T08:22:33;100853.95;;;11.64;52.00
66742;BME280;53654;54.152;19.432;2023-04-26T08:25:01;100852.88;;;11.66;51.63
66742;BME280;53654;54.152;19.432;2023-04-26T08:27:29;100854.96;;;11.66;52.07
66742;BME280;53654;54.152;19.432;2023-04-26T08:29:57;100849.70;;;11.68;52.09
66742;BME280;53654;54.152;19.432;2023-04-26T08:32:25;100853.02;;;11.70;51.90
66742;BME280;53654;54.152;19.432;2023-04-26T08:34:53;100856.32;;;11.71;51.58
66742;BME280;53654;54.152;19.432;2023-04-26T08:37:22;100858.09;;;11.68;51.72
66742;BME280;53654;54.152;19.432;2023-04-26T08:39:50;100864.19;;;11.69;52.12
66742;BME280;53654;54.152;19.432;2023-04-26T08:42:19;100857.70;;;11.71;51.72
66742;BME280;53654;54.152;19.432;2023-04-26T08:44:48;100863.61;;;11.75;51.36
66742;BME280;53654;54.152;19.432;2023-04-26T08:47:28;100860.95;;;11.80;51.86
66742;BME280;53654;54.152;19.432;2023-04-26T08:50:01;100866.10;;;11.88;51.94
66742;BME280;53654;54.152;19.432;2023-04-26T08:52:31;100865.37;;;11.91;50.87
66742;BME280;53654;54.152;19.432;2023-04-26T08:54:59;100865.54;;;11.92;51.09
66742;BME280;53654;54.152;19.432;2023-04-26T08:57:30;100864.45;;;11.94;51.77
66742;BME280;53654;54.152;19.432;2023-04-26T09:00:01;100872.37;;;11.90;50.94
66742;BME280;53654;54.152;19.432;2023-04-26T09:02:33;100872.98;;;11.83;50.76
66742;BME280;53654;54.152;19.432;2023-04-26T09:05:01;100871.48;;;11.74;51.11
66742;BME280;53654;54.152;19.432;2023-04-26T09:07:45;100874.37;;;11.66;50.72
66742;BME280;53654;54.152;19.432;2023-04-26T09:10:19;100874.02;;;11.65;51.32
66742;BME280;53654;54.152;19.432;2023-04-26T09:12:50;100873.33;;;11.65;51.14
66742;BME280;53654;54.152;19.432;2023-04-26T09:15:23;100879.89;;;11.73;51.60
66742;BME280;53654;54.152;19.432;2023-04-26T09:17:52;100875.66;;;11.78;51.02
66742;BME280;53654;54.152;19.432;2023-04-26T09:20:23;100880.86;;;11.81;50.74
66742;BME280;53654;54.152;19.432;2023-04-26T09:22:53;100881.36;;;11.84;50.36
66742;BME280;53654;54.152;19.432;2023-04-26T09:25:30;100876.24;;;11.88;50.37
66742;BME280;53654;54.152;19.432;2023-04-26T09:27:59;100883.02;;;11.91;50.38
66742;BME280;53654;54.152;19.432;2023-04-26T09:30:27;100883.16;;;11.94;49.71
66742;BME280;53654;54.152;19.432;2023-04-26T09:33:00;100884.05;;;11.93;50.43
66742;BME280;53654;54.152;19.432;2023-04-26T09:38:05;100889.80;;;11.78;50.02
66742;BME280;53654;54.152;19.432;2023-04-26T09:40:40;100896.07;;;11.62;50.47
66742;BME280;53654;54.152;19.432;2023-04-26T09:43:19;100896.54;;;11.50;51.02
66742;BME280;53654;54.152;19.432;2023-04-26T09:45:56;100898.37;;;11.42;51.24
66742;BME280;53654;54.152;19.432;2023-04-26T09:50:55;100900.05;;;11.29;51.41
66742;BME280;53654;54.152;19.432;2023-04-26T09:53:26;100902.22;;;11.22;51.50
66742;BME280;53654;54.152;19.432;2023-04-26T09:55:55;100906.84;;;11.12;50.77
66742;BME280;53654;54.152;19.432;2023-04-26T09:58:23;100906.25;;;10.99;51.20
66742;BME280;53654;54.152;19.432;2023-04-26T10:00:51;100908.76;;;10.91;51.46
66742;BME280;53654;54.152;19.432;2023-04-26T10:03:21;100911.79;;;10.82;51.90
66742;BME280;53654;54.152;19.432;2023-04-26T10:05:50;100912.36;;;10.75;52.75
66742;BME280;53654;54.152;19.432;2023-04-26T10:08:18;100910.82;;;10.70;52.78
66742;BME280;53654;54.152;19.432;2023-04-26T10:10:48;100913.48;;;10.63;53.36
66742;BME280;53654;54.152;19.432;2023-04-26T10:13:17;100914.20;;;10.57;53.68
66742;BME280;53654;54.152;19.432;2023-04-26T10:15:46;100921.40;;;10.50;53.73
66742;BME280;53654;54.152;19.432;2023-04-26T10:18:14;100918.66;;;10.41;54.32
66742;BME280;53654;54.152;19.432;2023-04-26T10:20:45;100924.95;;;10.34;54.46
66742;BME280;53654;54.152;19.432;2023-04-26T10:23:19;100927.05;;;10.30;55.02
66742;BME280;53654;54.152;19.432;2023-04-26T10:25:48;100928.45;;;10.28;55.06
66742;BME280;53654;54.152;19.432;2023-04-26T10:28:17;100925.69;;;10.24;54.73
66742;BME280;53654;54.152;19.432;2023-04-26T10:33:24;100927.78;;;10.15;54.82
66742;BME280;53654;54.152;19.432;2023-04-26T10:38:28;100934.42;;;10.07;55.31
66742;BME280;53654;54.152;19.432;2023-04-26T10:41:35;100935.83;;;10.05;55.21
66742;BME280;53654;54.152;19.432;2023-04-26T10:44:35;100933.94;;;9.96;55.51
66742;BME280;53654;54.152;19.432;2023-04-26T10:47:06;100939.70;;;9.98;56.20
66742;BME280;53654;54.152;19.432;2023-04-26T10:49:45;100934.63;;;10.04;56.63
66742;BME280;53654;54.152;19.432;2023-04-26T10:52:17;100941.39;;;10.08;56.23
66742;BME280;53654;54.152;19.432;2023-04-26T10:54:57;100941.92;;;10.07;55.66
66742;BME280;53654;54.152;19.432;2023-04-26T10:57:51;100939.16;;;10.03;55.56
66742;BME280;53654;54.152;19.432;2023-04-26T11:00:24;100948.73;;;10.01;55.95
66742;BME280;53654;54.152;19.432;2023-04-26T11:03:04;100946.13;;;10.03;55.76
66742;BME280;53654;54.152;19.432;2023-04-26T11:08:23;100957.46;;;10.01;56.28
66742;BME280;53654;54.152;19.432;2023-04-26T11:11:08;100970.70;;;9.99;56.95
66742;BME280;53654;54.152;19.432;2023-04-26T11:13:39;100978.39;;;9.91;57.67
66742;BME280;53654;54.152;19.432;2023-04-26T11:16:11;100985.20;;;9.83;59.00
66742;BME280;53654;54.152;19.432;2023-04-26T11:18:43;100994.27;;;9.76;60.56
66742;BME280;53654;54.152;19.432;2023-04-26T11:21:11;100992.19;;;9.69;62.16
66742;BME280;53654;54.152;19.432;2023-04-26T11:23:42;100995.34;;;9.58;62.14
66742;BME280;53654;54.152;19.432;2023-04-26T11:26:21;101001.60;;;9.43;62.38
66742;BME280;53654;54.152;19.432;2023-04-26T11:28:49;101005.27;;;9.33;62.86
66742;BME280;53654;54.152;19.432;2023-04-26T11:31:17;101003.16;;;9.24;62.75
66742;BME280;53654;54.152;19.432;2023-04-26T11:33:46;101005.08;;;9.19;62.97
66742;BME280;53654;54.152;19.432;2023-04-26T11:36:17;101010.64;;;9.16;63.40
66742;BME280;53654;54.152;19.432;2023-04-26T11:38:46;101013.60;;;9.14;63.37
66742;BME280;53654;54.152;19.432;2023-04-26T11:41:14;101012.20;;;9.13;62.86
66742;BME280;53654;54.152;19.432;2023-04-26T11:43:43;101013.94;;;9.12;62.23
66742;BME280;53654;54.152;19.432;2023-04-26T11:46:11;101018.98;;;9.09;62.35
66742;BME280;53654;54.152;19.432;2023-04-26T11:48:39;101023.51;;;9.09;62.08
66742;BME280;53654;54.152;19.432;2023-04-26T11:51:08;101026.13;;;9.09;61.98
66742;BME280;53654;54.152;19.432;2023-04-26T11:53:41;101026.82;;;9.11;62.24
66742;BME280;53654;54.152;19.432;2023-04-26T11:56:17;101031.01;;;9.15;62.33
66742;BME280;53654;54.152;19.432;2023-04-26T11:58:48;101028.57;;;9.18;61.83
66742;BME280;53654;54.152;19.432;2023-04-26T12:01:22;101024.56;;;9.23;61.67
66742;BME280;53654;54.152;19.432;2023-04-26T12:03:52;101027.55;;;9.30;61.61
66742;BME280;53654;54.152;19.432;2023-04-26T12:06:34;101025.29;;;9.38;62.05
66742;BME280;53654;54.152;19.432;2023-04-26T12:09:08;101024.42;;;9.47;61.78
66742;BME280;53654;54.152;19.432;2023-04-26T12:11:38;101030.17;;;9.60;61.81
66742;BME280;53654;54.152;19.432;2023-04-26T12:14:07;101023.89;;;9.72;61.39
66742;BME280;53654;54.152;19.432;2023-04-26T12:16:37;101025.98;;;9.82;60.37
66742;BME280;53654;54.152;19.432;2023-04-26T12:19:06;101026.84;;;9.91;59.87
66742;BME280;53654;54.152;19.432;2023-04-26T12:21:41;101027.70;;;9.99;59.64
66742;BME280;53654;54.152;19.432;2023-04-26T12:24:29;101027.86;;;10.09;59.10
66742;BME280;53654;54.152;19.432;2023-04-26T12:27:04;101031.68;;;10.19;59.14
66742;BME280;53654;54.152;19.432;2023-04-26T12:29:35;101032.73;;;10.30;58.91
66742;BME280;53654;54.152;19.432;2023-04-26T12:32:03;101038.80;;;10.38;58.40
66742;BME280;53654;54.152;19.432;2023-04-26T12:34:32;101043.36;;;10.42;58.52
66742;BME280;53654;54.152;19.432;2023-04-26T12:37:00;101039.84;;;10.48;57.98
66742;BME280;53654;54.152;19.432;2023-04-26T12:39:28;101041.77;;;10.49;57.01
66742;BME280;53654;54.152;19.432;2023-04-26T12:41:56;101043.15;;;10.51;57.20
66742;BME280;53654;54.152;19.432;2023-04-26T12:44:24;101044.38;;;10.51;57.39
66742;BME280;53654;54.152;19.432;2023-04-26T12:46:53;101042.28;;;10.51;56.94
66742;BME280;53654;54.152;19.432;2023-04-26T12:49:21;101044.02;;;10.50;56.40
66742;BME280;53654;54.152;19.432;2023-04-26T12:51:49;101042.80;;;10.48;56.47
66742;BME280;53654;54.152;19.432;2023-04-26T12:54:17;101042.98;;;10.49;56.43
66742;BME280;53654;54.152;19.432;2023-04-26T12:56:45;101044.73;;;10.50;56.48
66742;BME280;53654;54.152;19.432;2023-04-26T12:59:13;101042.45;;;10.53;56.20
66742;BME280;53654;54.152;19.432;2023-04-26T13:01:41;101043.48;;;10.59;56.59
66742;BME280;53654;54.152;19.432;2023-04-26T13:04:09;101042.56;;;10.67;56.62
66742;BME280;53654;54.152;19.432;2023-04-26T13:06:38;101042.52;;;10.78;55.93
66742;BME280;53654;54.152;19.432;2023-04-26T13:09:06;101047.02;;;10.87;55.24
66742;BME280;53654;54.152;19.432;2023-04-26T13:11:35;101043.48;;;10.95;55.66
66742;BME280;53654;54.152;19.432;2023-04-26T13:14:03;101042.02;;;11.05;55.58